createdAt,value
2023-03-22T00:00:27.409Z,61.82
2023-03-22T00:02:56.168Z,61.81
2023-03-22T00:05:23.813Z,62.15
2023-03-22T00:07:54.217Z,61.61
2023-03-22T00:10:23.165Z,61.84
2023-03-22T00:12:50.998Z,61.93
2023-03-22T00:15:19.795Z,61.98
2023-03-22T00:17:47.825Z,62.15
2023-03-22T00:20:15.405Z,61.91
2023-03-22T00:22:43.034Z,62.00
2023-03-22T00:25:11.485Z,61.85
2023-03-22T00:27:40.551Z,62.17
2023-03-22T00:30:10.208Z,61.68
2023-03-22T00:32:38.571Z,61.88
2023-03-22T00:35:07.899Z,62.35
2023-03-22T00:37:38.577Z,62.09
2023-03-22T00:40:08.766Z,61.92
2023-03-22T00:42:36.632Z,61.92
2023-03-22T00:45:07.382Z,62.03
2023-03-22T00:47:35.409Z,61.84
2023-03-22T00:50:03.542Z,61.81
2023-03-22T00:52:31.134Z,61.93
2023-03-22T00:54:58.859Z,62.13
2023-03-22T00:57:26.479Z,62.04
2023-03-22T00:59:55.843Z,61.87
2023-03-22T01:02:29.553Z,62.29
2023-03-22T01:04:57.813Z,62.04
2023-03-22T01:07:25.420Z,62.15
2023-03-22T01:09:53.392Z,62.15
2023-03-22T01:12:21.668Z,62.12
2023-03-22T01:14:49.294Z,61.80
2023-03-22T01:17:16.931Z,62.37
2023-03-22T01:19:46.014Z,62.09
2023-03-22T01:22:13.648Z,62.45
2023-03-22T01:24:41.404Z,62.27
2023-03-22T01:27:08.990Z,62.18
2023-03-22T01:29:36.646Z,61.96
2023-03-22T01:32:04.624Z,62.17
2023-03-22T01:34:32.302Z,62.47
2023-03-22T01:37:01.349Z,62.48
2023-03-22T01:39:29.015Z,62.44
2023-03-22T01:41:56.623Z,62.13
2023-03-22T01:44:25.025Z,62.06
2023-03-22T01:46:52.893Z,62.25
2023-03-22T01:49:24.888Z,62.24
2023-03-22T01:51:56.138Z,62.14
2023-03-22T01:54:29.634Z,62.36
2023-03-22T01:56:57.749Z,62.65
2023-03-22T01:59:26.120Z,62.26
2023-03-22T02:01:53.798Z,62.29
2023-03-22T02:04:24.765Z,62.46
2023-03-22T02:06:54.670Z,62.35
2023-03-22T02:09:22.827Z,62.50
2023-03-22T02:11:59.070Z,62.22
2023-03-22T02:14:41.656Z,62.29
2023-03-22T02:17:20.254Z,62.32
2023-03-22T02:20:47.071Z,62.31
2023-03-22T02:24:08.094Z,62.36
2023-03-22T02:27:06.370Z,62.32
2023-03-22T02:29:44.887Z,62.44
2023-03-22T02:32:49.321Z,62.35
2023-03-22T02:35:28.799Z,62.20
2023-03-22T02:38:19.834Z,62.38
2023-03-22T02:40:53.853Z,62.40
2023-03-22T02:43:38.474Z,62.18
2023-03-22T02:46:10.894Z,62.38
2023-03-22T02:48:42.947Z,62.72
2023-03-22T02:51:15.319Z,62.16
2023-03-22T02:53:46.992Z,62.34
2023-03-22T02:56:21.473Z,62.24
2023-03-22T02:58:53.377Z,62.30
2023-03-22T03:01:26.304Z,62.38
2023-03-22T03:03:58.145Z,62.14
2023-03-22T03:06:28.870Z,62.41
2023-03-22T03:08:57.990Z,62.44
2023-03-22T03:11:27.060Z,62.68
2023-03-22T03:13:54.962Z,62.41
2023-03-22T03:16:26.600Z,62.60
2023-03-22T03:19:00.408Z,62.52
2023-03-22T03:21:34.789Z,62.38
2023-03-22T03:24:20.799Z,62.46
2023-03-22T03:26:57.143Z,62.42
2023-03-22T03:29:34.356Z,62.56
2023-03-22T03:32:08.272Z,62.35
2023-03-22T03:34:42.141Z,62.76
2023-03-22T03:37:14.908Z,62.46
2023-03-22T03:39:49.551Z,62.67
2023-03-22T03:42:19.536Z,62.53
2023-03-22T03:44:47.201Z,62.34
2023-03-22T03:47:15.821Z,62.64
2023-03-22T03:49:43.459Z,62.65
2023-03-22T03:52:11.397Z,62.40
2023-03-22T03:54:39.009Z,62.75
2023-03-22T03:57:06.704Z,62.59
2023-03-22T03:59:35.877Z,62.74
2023-03-22T04:02:03.546Z,62.69
2023-03-22T04:04:31.245Z,62.48
2023-03-22T04:07:00.524Z,62.38
2023-03-22T04:09:30.004Z,62.74
2023-03-22T04:11:58.776Z,62.65
2023-03-22T04:14:27.000Z,62.52
2023-03-22T04:16:56.976Z,62.89
2023-03-22T04:19:24.900Z,62.64
2023-03-22T04:21:53.228Z,62.63
2023-03-22T04:24:21.494Z,62.71
2023-03-22T04:26:49.111Z,62.85
2023-03-22T04:29:17.001Z,62.51
2023-03-22T04:31:44.599Z,62.60
2023-03-22T04:34:14.077Z,62.58
2023-03-22T04:36:41.859Z,62.90
2023-03-22T04:39:12.221Z,62.57
2023-03-22T04:41:39.873Z,62.37
2023-03-22T04:44:08.261Z,62.59
2023-03-22T04:46:37.317Z,62.48
2023-03-22T04:49:05.223Z,62.72
2023-03-22T04:51:34.232Z,62.54
2023-03-22T04:54:01.846Z,62.57
2023-03-22T04:56:29.478Z,62.57
2023-03-22T04:58:57.076Z,62.69
2023-03-22T05:01:24.755Z,63.08
2023-03-22T05:03:52.388Z,62.92
2023-03-22T05:06:20.033Z,62.73
2023-03-22T05:08:48.991Z,62.64
2023-03-22T05:11:19.384Z,62.73
2023-03-22T05:13:47.110Z,62.87
2023-03-22T05:16:14.908Z,62.39
2023-03-22T05:18:45.409Z,62.69
2023-03-22T05:21:15.411Z,62.33
2023-03-22T05:23:43.845Z,62.64
2023-03-22T05:26:15.993Z,62.62
2023-03-22T05:28:44.607Z,62.60
2023-03-22T05:31:14.860Z,62.87
2023-03-22T05:33:42.568Z,62.58
2023-03-22T05:36:12.184Z,62.46
2023-03-22T05:38:39.792Z,62.57
2023-03-22T05:41:07.995Z,62.82
2023-03-22T05:43:37.125Z,62.80
2023-03-22T05:46:06.815Z,62.59
2023-03-22T05:48:34.633Z,62.40
2023-03-22T05:51:03.425Z,62.59
2023-03-22T05:53:31.225Z,62.52
2023-03-22T05:56:00.667Z,62.55
2023-03-22T05:58:28.892Z,62.59
2023-03-22T06:01:01.022Z,62.93
2023-03-22T06:03:29.101Z,62.56
2023-03-22T06:05:56.748Z,62.51
2023-03-22T06:08:26.591Z,62.23
2023-03-22T06:10:54.979Z,62.52
2023-03-22T06:13:23.073Z,62.66
2023-03-22T06:15:50.996Z,62.65
2023-03-22T06:18:19.955Z,62.40
2023-03-22T06:20:47.553Z,62.66
2023-03-22T06:23:15.330Z,62.40
2023-03-22T06:25:43.525Z,62.67
2023-03-22T06:28:11.161Z,62.93
2023-03-22T06:30:39.188Z,62.73
2023-03-22T06:33:06.998Z,62.87
2023-03-22T06:35:36.410Z,62.67
2023-03-22T06:38:04.126Z,62.75
2023-03-22T06:40:31.732Z,62.52
2023-03-22T06:43:02.290Z,62.74
2023-03-22T06:45:33.468Z,62.73
2023-03-22T06:48:01.673Z,62.94
2023-03-22T06:50:29.911Z,62.53
2023-03-22T06:52:59.251Z,62.70
2023-03-22T06:55:26.894Z,62.69
2023-03-22T06:57:54.544Z,62.80
2023-03-22T07:00:22.601Z,62.88
2023-03-22T07:02:52.621Z,62.87
2023-03-22T07:05:20.453Z,62.84
2023-03-22T07:07:48.047Z,62.64
2023-03-22T07:10:17.054Z,62.93
2023-03-22T07:12:44.746Z,62.74
2023-03-22T07:15:12.808Z,62.74
2023-03-22T07:17:40.385Z,62.75
2023-03-22T07:20:09.220Z,62.81
2023-03-22T07:22:36.915Z,62.98
2023-03-22T07:25:04.861Z,62.83
2023-03-22T07:27:33.888Z,62.74
2023-03-22T07:30:01.493Z,62.74
2023-03-22T07:32:29.097Z,62.55
2023-03-22T07:34:56.808Z,62.80
2023-03-22T07:37:24.742Z,62.90
2023-03-22T07:39:52.460Z,62.72
2023-03-22T07:42:20.062Z,62.42
2023-03-22T07:44:49.749Z,62.87
2023-03-22T07:47:22.176Z,63.02
2023-03-22T07:49:54.895Z,63.01
2023-03-22T07:52:22.511Z,62.78
2023-03-22T07:54:50.147Z,62.99
2023-03-22T07:57:17.741Z,63.06
2023-03-22T07:59:45.399Z,63.05
2023-03-22T08:02:14.530Z,62.92
2023-03-22T08:04:42.183Z,63.15
2023-03-22T08:07:10.114Z,62.72
2023-03-22T08:09:38.043Z,62.82
2023-03-22T08:12:06.236Z,63.05
2023-03-22T08:14:36.777Z,63.03
2023-03-22T08:17:05.766Z,63.02
2023-03-22T08:19:35.462Z,62.84
2023-03-22T08:22:03.661Z,63.11
2023-03-22T08:24:31.346Z,63.02
2023-03-22T08:26:58.971Z,63.11
2023-03-22T08:29:26.730Z,62.80
2023-03-22T08:31:54.918Z,63.07
2023-03-22T08:34:22.764Z,62.88
2023-03-22T08:36:51.686Z,63.05
2023-03-22T08:39:19.298Z,63.04
2023-03-22T08:41:46.893Z,62.93
2023-03-22T08:44:14.512Z,63.11
2023-03-22T08:46:42.170Z,62.62
2023-03-22T08:49:10.492Z,63.34
2023-03-22T08:51:38.137Z,62.90
2023-03-22T08:54:07.652Z,62.97
2023-03-22T08:56:37.987Z,62.92
2023-03-22T08:59:06.477Z,63.01
2023-03-22T09:01:34.163Z,62.96
2023-03-22T09:04:01.946Z,62.92
2023-03-22T09:06:29.705Z,62.85
2023-03-22T09:08:57.609Z,63.17
2023-03-22T09:11:26.646Z,63.10
2023-03-22T09:13:54.355Z,63.01
2023-03-22T09:16:22.136Z,62.83
2023-03-22T09:18:49.982Z,62.98
2023-03-22T09:21:17.626Z,62.91
2023-03-22T09:23:47.791Z,62.74
2023-03-22T09:26:15.790Z,63.19
2023-03-22T09:28:45.964Z,62.55
2023-03-22T09:31:13.670Z,62.67
2023-03-22T09:33:41.715Z,62.76
2023-03-22T09:36:11.897Z,62.88
2023-03-22T09:38:41.293Z,62.91
2023-03-22T09:41:15.818Z,62.89
2023-03-22T09:43:49.653Z,62.78
2023-03-22T09:46:23.945Z,62.92
2023-03-22T09:48:52.413Z,63.00
2023-03-22T09:51:31.531Z,63.01
2023-03-22T09:53:59.225Z,62.79
2023-03-22T09:56:30.482Z,62.84
2023-03-22T09:59:07.190Z,62.96
2023-03-22T10:01:41.370Z,62.82
2023-03-22T10:04:31.144Z,63.04
2023-03-22T10:07:07.302Z,62.88
2023-03-22T10:09:43.863Z,62.93
2023-03-22T10:12:21.225Z,62.73
2023-03-22T10:14:52.820Z,62.93
2023-03-22T10:17:26.356Z,62.97
2023-03-22T10:19:58.969Z,62.77
2023-03-22T10:22:30.829Z,62.77
2023-03-22T10:25:00.866Z,62.84
2023-03-22T10:27:30.592Z,62.69
2023-03-22T10:30:04.351Z,62.84
2023-03-22T10:32:54.780Z,62.76
2023-03-22T10:35:24.686Z,62.65
2023-03-22T10:37:53.833Z,62.84
2023-03-22T10:40:26.204Z,63.23
2023-03-22T10:42:57.184Z,62.97
2023-03-22T10:45:27.374Z,62.87
2023-03-22T10:48:00.047Z,62.89
2023-03-22T10:50:31.087Z,63.07
2023-03-22T10:53:04.123Z,62.75
2023-03-22T10:55:31.786Z,63.07
2023-03-22T10:58:12.830Z,62.79
2023-03-22T11:00:47.208Z,63.05
2023-03-22T11:03:28.069Z,62.92
2023-03-22T11:06:06.372Z,63.33
2023-03-22T11:08:42.068Z,62.98
2023-03-22T11:11:18.088Z,63.02
2023-03-22T11:13:51.924Z,63.10
2023-03-22T11:16:21.164Z,63.12
2023-03-22T11:18:48.885Z,63.10
2023-03-22T11:21:18.818Z,62.92
2023-03-22T11:23:54.570Z,62.87
2023-03-22T11:26:29.121Z,62.95
2023-03-22T11:29:05.925Z,63.22
2023-03-22T11:31:53.591Z,63.22
2023-03-22T11:34:26.240Z,63.25
2023-03-22T11:36:56.939Z,62.75
2023-03-22T11:39:28.266Z,63.07
2023-03-22T11:41:59.793Z,62.99
2023-03-22T11:44:29.595Z,63.15
2023-03-22T11:47:01.612Z,62.96
2023-03-22T11:49:38.462Z,63.08
2023-03-22T11:52:11.126Z,63.09
2023-03-22T11:54:42.250Z,63.09
2023-03-22T11:57:14.547Z,63.18
2023-03-22T11:59:49.121Z,62.78
2023-03-22T12:02:24.715Z,63.07
2023-03-22T12:05:00.530Z,62.95
2023-03-22T12:07:31.253Z,63.11
2023-03-22T12:10:06.133Z,62.75
2023-03-22T12:12:38.067Z,62.90
2023-03-22T12:15:09.278Z,63.00
2023-03-22T12:17:42.641Z,62.91
2023-03-22T12:20:21.999Z,63.16
2023-03-22T12:22:53.785Z,63.07
2023-03-22T12:25:24.247Z,63.22
2023-03-22T12:27:55.620Z,63.22
2023-03-22T12:30:25.620Z,62.97
2023-03-22T12:33:01.636Z,62.80
2023-03-22T12:35:32.519Z,63.03
2023-03-22T12:38:08.078Z,62.95
2023-03-22T12:40:39.214Z,62.81
2023-03-22T12:43:14.659Z,63.06
2023-03-22T12:45:47.157Z,63.06
2023-03-22T12:48:21.209Z,62.91
2023-03-22T12:50:54.096Z,63.03
2023-03-22T12:53:24.302Z,62.81
2023-03-22T12:55:52.532Z,62.94
2023-03-22T12:58:23.273Z,62.99
2023-03-22T13:00:54.457Z,62.83
2023-03-22T13:03:28.809Z,62.96
2023-03-22T13:06:02.647Z,63.08
2023-03-22T13:09:05.355Z,62.81
2023-03-22T13:11:33.567Z,63.04
2023-03-22T13:14:01.497Z,63.18
2023-03-22T13:16:57.091Z,62.94
2023-03-22T13:19:52.271Z,63.21
2023-03-22T13:22:24.244Z,63.12
2023-03-22T13:25:08.642Z,63.25
2023-03-22T13:27:38.955Z,63.01
2023-03-22T13:30:15.840Z,62.69
2023-03-22T13:32:54.526Z,62.85
2023-03-22T13:35:28.619Z,62.93
2023-03-22T13:38:03.110Z,63.09
2023-03-22T13:40:36.118Z,63.21
2023-03-22T13:43:13.136Z,63.04
2023-03-22T13:46:13.065Z,63.02
2023-03-22T13:48:45.621Z,63.03
2023-03-22T13:51:18.974Z,62.92
2023-03-22T13:53:57.061Z,63.13
2023-03-22T13:56:52.367Z,63.05
2023-03-22T13:59:23.984Z,62.99
2023-03-22T14:01:53.794Z,62.85
2023-03-22T14:04:26.656Z,62.89
2023-03-22T14:06:59.845Z,63.10
2023-03-22T14:09:32.459Z,62.91
2023-03-22T14:12:07.791Z,63.00
2023-03-22T14:14:41.101Z,62.91
2023-03-22T14:17:20.916Z,63.12
2023-03-22T14:19:51.432Z,62.97
